sensor_id;sensor_type;location;lat;lon;timestamp;pressure;altitude;pressure_sealevel;temperature;humidity
10460;BME280;54412;51.206;6.888;2022-08-18T00:01:57;100553.16;;;22.75;64.03
10460;BME280;54412;51.206;6.888;2022-08-18T00:04:25;100570.81;;;22.60;64.70
10460;BME280;54412;51.206;6.888;2022-08-18T00:06:51;100583.72;;;22.39;65.05
10460;BME280;54412;51.206;6.888;2022-08-18T00:09:17;100580.00;;;22.23;65.46
10460;BME280;54412;51.206;6.888;2022-08-18T00:11:43;100576.84;;;22.27;65.44
10460;BME280;54412;51.206;6.888;2022-08-18T00:14:15;100572.88;;;22.31;65.10
10460;BME280;54412;51.206;6.888;2022-08-18T00:16:41;100580.97;;;22.22;64.90
10460;BME280;54412;51.206;6.888;2022-08-18T00:19:06;100583.44;;;22.15;65.29
10460;BME280;54412;51.206;6.888;2022-08-18T00:21:33;100581.25;;;22.28;64.73
10460;BME280;54412;51.206;6.888;2022-08-18T00:23:59;100584.31;;;22.33;64.81
10460;BME280;54412;51.206;6.888;2022-08-18T00:26:25;100585.59;;;22.29;65.09
10460;BME280;54412;51.206;6.888;2022-08-18T00:28:50;100596.44;;;22.20;64.53
10460;BME280;54412;51.206;6.888;2022-08-18T00:31:16;100590.06;;;22.38;64.16
10460;BME280;54412;51.206;6.888;2022-08-18T00:33:42;100590.91;;;22.39;64.01
10460;BME280;54412;51.206;6.888;2022-08-18T00:36:09;100589.69;;;22.51;63.79
10460;BME280;54412;51.206;6.888;2022-08-18T00:38:36;100590.84;;;22.48;63.83
10460;BME280;54412;51.206;6.888;2022-08-18T00:41:02;100590.78;;;22.58;63.41
10460;BME280;54412;51.206;6.888;2022-08-18T00:43:41;100578.88;;;22.60;63.13
10460;BME280;54412;51.206;6.888;2022-08-18T00:46:14;100568.56;;;22.38;63.89
10460;BME280;54412;51.206;6.888;2022-08-18T00:48:40;100575.16;;;22.44;63.77
10460;BME280;54412;51.206;6.888;2022-08-18T00:51:34;100570.97;;;22.41;64.01
10460;BME280;54412;51.206;6.888;2022-08-18T00:54:11;100572.31;;;22.45;63.87
10460;BME280;54412;51.206;6.888;2022-08-18T00:56:51;100567.03;;;22.53;63.48
10460;BME280;54412;51.206;6.888;2022-08-18T01:02:33;100570.66;;;22.27;64.23
10460;BME280;54412;51.206;6.888;2022-08-18T01:05:07;100566.78;;;22.12;65.19
10460;BME280;54412;51.206;6.888;2022-08-18T01:07:42;100567.38;;;22.06;65.54
10460;BME280;54412;51.206;6.888;2022-08-18T01:10:14;100568.56;;;22.21;65.14
10460;BME280;54412;51.206;6.888;2022-08-18T01:12:49;100564.09;;;22.12;65.17
10460;BME280;54412;51.206;6.888;2022-08-18T01:15:17;100566.56;;;22.23;64.63
10460;BME280;54412;51.206;6.888;2022-08-18T01:17:44;100566.50;;;22.32;64.11
10460;BME280;54412;51.206;6.888;2022-08-18T01:20:42;100569.44;;;22.56;63.27
10460;BME280;54412;51.206;6.888;2022-08-18T01:23:29;100575.50;;;22.58;63.23
10460;BME280;54412;51.206;6.888;2022-08-18T01:25:55;100576.56;;;22.30;64.49
10460;BME280;54412;51.206;6.888;2022-08-18T01:28:37;100580.31;;;22.37;63.89
10460;BME280;54412;51.206;6.888;2022-08-18T01:31:04;100576.59;;;22.03;65.03
10460;BME280;54412;51.206;6.888;2022-08-18T01:33:37;100574.31;;;21.81;66.08
10460;BME280;54412;51.206;6.888;2022-08-18T01:36:15;100577.28;;;21.78;66.20
10460;BME280;54412;51.206;6.888;2022-08-18T01:38:44;100584.94;;;22.00;65.38
10460;BME280;54412;51.206;6.888;2022-08-18T01:41:10;100586.81;;;22.17;64.10
10460;BME280;54412;51.206;6.888;2022-08-18T01:43:37;100590.81;;;22.13;64.37
10460;BME280;54412;51.206;6.888;2022-08-18T01:46:04;100591.56;;;22.06;64.49
10460;BME280;54412;51.206;6.888;2022-08-18T01:48:32;100594.88;;;22.17;64.42
10460;BME280;54412;51.206;6.888;2022-08-18T01:51:01;100591.00;;;22.02;64.92
10460;BME280;54412;51.206;6.888;2022-08-18T01:53:28;100600.94;;;22.02;64.63
10460;BME280;54412;51.206;6.888;2022-08-18T01:55:54;100594.31;;;21.96;65.18
10460;BME280;54412;51.206;6.888;2022-08-18T01:58:21;100600.03;;;21.74;65.91
10460;BME280;54412;51.206;6.888;2022-08-18T02:00:56;100601.00;;;21.83;65.75
10460;BME280;54412;51.206;6.888;2022-08-18T02:03:28;100593.41;;;22.05;64.68
10460;BME280;54412;51.206;6.888;2022-08-18T02:06:00;100598.16;;;22.11;64.33
10460;BME280;54412;51.206;6.888;2022-08-18T02:08:27;100604.88;;;22.25;63.52
10460;BME280;54412;51.206;6.888;2022-08-18T02:10:53;100602.19;;;22.25;63.49
10460;BME280;54412;51.206;6.888;2022-08-18T02:13:19;100598.88;;;22.13;63.89
10460;BME280;54412;51.206;6.888;2022-08-18T02:15:45;100600.81;;;22.21;63.38
10460;BME280;54412;51.206;6.888;2022-08-18T02:18:22;100599.38;;;21.99;64.10
10460;BME280;54412;51.206;6.888;2022-08-18T02:20:48;100594.13;;;22.07;64.69
10460;BME280;54412;51.206;6.888;2022-08-18T02:23:14;100590.06;;;22.21;64.54
10460;BME280;54412;51.206;6.888;2022-08-18T02:25:42;100582.16;;;22.19;64.67
10460;BME280;54412;51.206;6.888;2022-08-18T02:28:08;100569.31;;;22.13;64.99
10460;BME280;54412;51.206;6.888;2022-08-18T02:30:35;100575.97;;;22.09;65.32
10460;BME280;54412;51.206;6.888;2022-08-18T02:33:09;100568.66;;;22.29;65.21
10460;BME280;54412;51.206;6.888;2022-08-18T02:35:37;100567.25;;;22.25;65.13
10460;BME280;54412;51.206;6.888;2022-08-18T02:38:06;100564.34;;;22.36;64.78
10460;BME280;54412;51.206;6.888;2022-08-18T02:40:34;100566.09;;;22.27;65.11
10460;BME280;54412;51.206;6.888;2022-08-18T02:43:08;100572.38;;;22.18;65.71
10460;BME280;54412;51.206;6.888;2022-08-18T02:45:36;100571.59;;;21.91;67.03
10460;BME280;54412;51.206;6.888;2022-08-18T02:48:03;100567.53;;;22.04;66.72
10460;BME280;54412;51.206;6.888;2022-08-18T02:50:29;100568.22;;;21.89;67.24
10460;BME280;54412;51.206;6.888;2022-08-18T02:52:54;100569.84;;;21.99;67.42
10460;BME280;54412;51.206;6.888;2022-08-18T02:55:20;100567.13;;;21.72;68.10
10460;BME280;54412;51.206;6.888;2022-08-18T02:57:47;100569.38;;;21.76;68.02
10460;BME280;54412;51.206;6.888;2022-08-18T03:00:17;100573.91;;;21.76;68.15
10460;BME280;54412;51.206;6.888;2022-08-18T03:02:48;100570.50;;;21.84;67.68
10460;BME280;54412;51.206;6.888;2022-08-18T03:05:16;100570.50;;;21.84;67.36
10460;BME280;54412;51.206;6.888;2022-08-18T03:07:43;100574.19;;;22.00;67.04
10460;BME280;54412;51.206;6.888;2022-08-18T03:10:09;100570.75;;;21.90;67.00
10460;BME280;54412;51.206;6.888;2022-08-18T03:12:35;100571.53;;;21.73;67.79
10460;BME280;54412;51.206;6.888;2022-08-18T03:15:01;100572.81;;;21.69;68.39
10460;BME280;54412;51.206;6.888;2022-08-18T03:17:28;100568.22;;;21.89;67.10
10460;BME280;54412;51.206;6.888;2022-08-18T03:19:53;100578.91;;;21.98;66.77
10460;BME280;54412;51.206;6.888;2022-08-18T03:22:19;100580.44;;;22.01;67.10
10460;BME280;54412;51.206;6.888;2022-08-18T03:24:45;100577.50;;;21.94;66.86
10460;BME280;54412;51.206;6.888;2022-08-18T03:27:11;100569.13;;;21.70;67.72
10460;BME280;54412;51.206;6.888;2022-08-18T03:29:37;100571.59;;;21.91;67.16
10460;BME280;54412;51.206;6.888;2022-08-18T03:32:05;100574.63;;;22.05;66.62
10460;BME280;54412;51.206;6.888;2022-08-18T03:34:32;100579.78;;;22.16;66.68
10460;BME280;54412;51.206;6.888;2022-08-18T03:36:59;100584.94;;;22.00;67.16
10460;BME280;54412;51.206;6.888;2022-08-18T03:39:25;100579.16;;;21.68;68.23
10460;BME280;54412;51.206;6.888;2022-08-18T03:41:53;100571.91;;;21.78;68.10
10460;BME280;54412;51.206;6.888;2022-08-18T03:44:20;100582.03;;;21.57;68.99
10460;BME280;54412;51.206;6.888;2022-08-18T03:46:47;100583.22;;;21.82;67.71
10460;BME280;54412;51.206;6.888;2022-08-18T03:49:13;100577.88;;;21.72;68.20
10460;BME280;54412;51.206;6.888;2022-08-18T03:51:43;100586.47;;;21.75;67.99
10460;BME280;54412;51.206;6.888;2022-08-18T03:54:16;100584.09;;;21.82;68.07
10460;BME280;54412;51.206;6.888;2022-08-18T03:56:44;100585.78;;;22.01;67.50
10460;BME280;54412;51.206;6.888;2022-08-18T03:59:15;100586.72;;;22.09;66.84
10460;BME280;54412;51.206;6.888;2022-08-18T04:01:44;100590.94;;;21.94;67.60
10460;BME280;54412;51.206;6.888;2022-08-18T04:04:17;100577.59;;;22.02;66.95
10460;BME280;54412;51.206;6.888;2022-08-18T04:06:52;100573.84;;;22.13;66.88
10460;BME280;54412;51.206;6.888;2022-08-18T04:09:20;100577.38;;;22.13;66.69
10460;BME280;54412;51.206;6.888;2022-08-18T04:11:46;100576.88;;;22.00;67.19
10460;BME280;54412;51.206;6.888;2022-08-18T04:14:17;100586.72;;;22.09;66.88
10460;BME280;54412;51.206;6.888;2022-08-18T04:16:44;100576.59;;;22.03;67.08
10460;BME280;54412;51.206;6.888;2022-08-18T04:19:11;100578.94;;;22.16;66.76
10460;BME280;54412;51.206;6.888;2022-08-18T04:21:40;100579.81;;;21.89;67.80
10460;BME280;54412;51.206;6.888;2022-08-18T04:24:08;100591.16;;;22.01;67.57
10460;BME280;54412;51.206;6.888;2022-08-18T04:26:39;100593.34;;;22.15;66.88
10460;BME280;54412;51.206;6.888;2022-08-18T04:29:07;100589.66;;;22.16;67.04
10460;BME280;54412;51.206;6.888;2022-08-18T04:31:34;100587.22;;;22.22;66.67
10460;BME280;54412;51.206;6.888;2022-08-18T04:34:01;100583.81;;;22.20;66.80
10460;BME280;54412;51.206;6.888;2022-08-18T04:36:30;100574.63;;;22.23;66.61
10460;BME280;54412;51.206;6.888;2022-08-18T04:38:57;100576.84;;;22.27;66.31
10460;BME280;54412;51.206;6.888;2022-08-18T04:41:27;100588.75;;;22.25;66.22
10460;BME280;54412;51.206;6.888;2022-08-18T04:43:57;100590.53;;;22.16;66.94
10460;BME280;54412;51.206;6.888;2022-08-18T04:46:25;100596.66;;;22.26;66.40
10460;BME280;54412;51.206;6.888;2022-08-18T04:48:52;100598.63;;;22.07;66.97
10460;BME280;54412;51.206;6.888;2022-08-18T04:51:24;100604.78;;;21.90;67.81
10460;BME280;54412;51.206;6.888;2022-08-18T04:53:50;100606.53;;;22.08;67.32
10460;BME280;54412;51.206;6.888;2022-08-18T04:56:26;100610.63;;;22.12;66.81
10460;BME280;54412;51.206;6.888;2022-08-18T04:59:06;100611.69;;;22.02;67.54
10460;BME280;54412;51.206;6.888;2022-08-18T05:01:50;100608.09;;;22.11;66.74
10460;BME280;54412;51.206;6.888;2022-08-18T05:04:16;100612.16;;;21.88;67.96
10460;BME280;54412;51.206;6.888;2022-08-18T05:06:44;100615.44;;;21.82;67.98
10460;BME280;54412;51.206;6.888;2022-08-18T05:09:13;100611.13;;;21.98;67.45
10460;BME280;54412;51.206;6.888;2022-08-18T05:11:40;100607.75;;;21.96;67.61
10460;BME280;54412;51.206;6.888;2022-08-18T05:14:07;100606.59;;;21.99;67.57
10460;BME280;54412;51.206;6.888;2022-08-18T05:16:35;100607.66;;;22.06;67.03
10460;BME280;54412;51.206;6.888;2022-08-18T05:19:09;100611.31;;;21.87;67.51
10460;BME280;54412;51.206;6.888;2022-08-18T05:21:39;100609.13;;;22.00;67.22
10460;BME280;54412;51.206;6.888;2022-08-18T05:24:08;100617.81;;;21.75;68.52
10460;BME280;54412;51.206;6.888;2022-08-18T05:26:35;100624.59;;;21.89;67.89
10460;BME280;54412;51.206;6.888;2022-08-18T05:29:01;100623.56;;;21.99;68.21
10460;BME280;54412;51.206;6.888;2022-08-18T05:31:28;100621.31;;;21.95;67.92
10460;BME280;54412;51.206;6.888;2022-08-18T05:33:55;100617.94;;;21.93;67.96
10460;BME280;54412;51.206;6.888;2022-08-18T05:39:15;100619.47;;;21.95;68.04
10460;BME280;54412;51.206;6.888;2022-08-18T05:42:02;100623.56;;;21.99;67.71
10460;BME280;54412;51.206;6.888;2022-08-18T05:44:38;100623.31;;;22.20;67.04
10460;BME280;54412;51.206;6.888;2022-08-18T05:47:24;100619.91;;;22.18;66.84
10460;BME280;54412;51.206;6.888;2022-08-18T05:49:52;100627.13;;;22.17;67.59
10460;BME280;54412;51.206;6.888;2022-08-18T05:52:37;100633.34;;;21.91;68.54
10460;BME280;54412;51.206;6.888;2022-08-18T05:55:25;100645.28;;;22.06;67.94
10460;BME280;54412;51.206;6.888;2022-08-18T05:58:29;100653.09;;;21.99;68.26
10460;BME280;54412;51.206;6.888;2022-08-18T06:01:03;100646.53;;;22.11;67.97
10460;BME280;54412;51.206;6.888;2022-08-18T06:03:39;100646.03;;;21.98;68.15
10460;BME280;54412;51.206;6.888;2022-08-18T06:06:22;100654.44;;;21.86;68.82
10460;BME280;54412;51.206;6.888;2022-08-18T06:09:28;100654.47;;;21.57;70.05
10460;BME280;54412;51.206;6.888;2022-08-18T06:12:08;100659.81;;;21.76;69.74
10460;BME280;54412;51.206;6.888;2022-08-18T06:14:38;100655.38;;;21.94;69.01
10460;BME280;54412;51.206;6.888;2022-08-18T06:17:35;100657.56;;;21.81;69.31
10460;BME280;54412;51.206;6.888;2022-08-18T06:23:13;100658.69;;;22.06;68.42
10460;BME280;54412;51.206;6.888;2022-08-18T06:29:37;100672.19;;;21.96;69.08
10460;BME280;54412;51.206;6.888;2022-08-18T06:37:58;100673.19;;;21.95;69.30
10460;BME280;54412;51.206;6.888;2022-08-18T06:40:48;100677.25;;;21.99;69.20
10460;BME280;54412;51.206;6.888;2022-08-18T06:43:15;100675.09;;;22.12;68.72
10460;BME280;54412;51.206;6.888;2022-08-18T06:45:45;100672.88;;;22.25;67.48
10460;BME280;54412;51.206;6.888;2022-08-18T06:48:50;100682.53;;;22.18;67.80
10460;BME280;54412;51.206;6.888;2022-08-18T06:51:20;100684.78;;;22.23;68.04
10460;BME280;54412;51.206;6.888;2022-08-18T06:53:58;100686.22;;;22.17;68.12
10460;BME280;54412;51.206;6.888;2022-08-18T06:59:33;100698.72;;;22.09;68.63
10460;BME280;54412;51.206;6.888;2022-08-18T07:02:20;100700.59;;;21.99;69.10
10460;BME280;54412;51.206;6.888;2022-08-18T07:07:41;100694.88;;;22.11;69.47
10460;BME280;54412;51.206;6.888;2022-08-18T07:10:42;100685.69;;;22.14;69.55
10460;BME280;54412;51.206;6.888;2022-08-18T07:15:38;100684.63;;;22.24;69.34
10460;BME280;54412;51.206;6.888;2022-08-18T07:18:07;100683.94;;;22.22;69.62
10460;BME280;54412;51.206;6.888;2022-08-18T07:20:45;100690.13;;;22.05;69.70
10460;BME280;54412;51.206;6.888;2022-08-18T07:23:35;100693.13;;;21.93;71.07
10460;BME280;54412;51.206;6.888;2022-08-18T07:26:14;100686.03;;;22.01;70.86
10460;BME280;54412;51.206;6.888;2022-08-18T07:28:51;100692.94;;;22.04;70.47
10460;BME280;54412;51.206;6.888;2022-08-18T07:31:42;100686.06;;;22.19;69.90
10460;BME280;54412;51.206;6.888;2022-08-18T07:34:19;100684.84;;;22.13;70.18
10460;BME280;54412;51.206;6.888;2022-08-18T07:36:54;100676.94;;;22.12;70.43
10460;BME280;54412;51.206;6.888;2022-08-18T07:39:29;100673.84;;;22.07;70.33
10460;BME280;54412;51.206;6.888;2022-08-18T07:42:16;100676.13;;;22.02;70.67
10460;BME280;54412;51.206;6.888;2022-08-18T07:47:29;100668.75;;;22.31;69.33
10460;BME280;54412;51.206;6.888;2022-08-18T07:49:56;100666.22;;;22.29;70.15
10460;BME280;54412;51.206;6.888;2022-08-18T07:52:42;100656.16;;;22.31;70.06
10460;BME280;54412;51.206;6.888;2022-08-18T07:55:32;100661.88;;;22.46;69.06
10460;BME280;54412;51.206;6.888;2022-08-18T07:58:26;100655.56;;;22.37;69.38
10460;BME280;54412;51.206;6.888;2022-08-18T08:01:17;100663.44;;;22.48;69.16
10460;BME280;54412;51.206;6.888;2022-08-18T08:04:12;100673.31;;;22.30;69.50
10460;BME280;54412;51.206;6.888;2022-08-18T08:06:51;100675.97;;;22.30;69.66
10460;BME280;54412;51.206;6.888;2022-08-18T08:12:43;100694.19;;;22.36;69.19
10460;BME280;54412;51.206;6.888;2022-08-18T08:18:11;100687.66;;;22.66;68.65
10460;BME280;54412;51.206;6.888;2022-08-18T08:20:50;100694.03;;;22.65;69.08
10460;BME280;54412;51.206;6.888;2022-08-18T08:23:54;100695.81;;;22.74;68.78
10460;BME280;54412;51.206;6.888;2022-08-18T08:29:58;100683.81;;;23.04;67.94
10460;BME280;54412;51.206;6.888;2022-08-18T08:32:34;100688.03;;;23.24;67.53
10460;BME280;54412;51.206;6.888;2022-08-18T08:35:14;100695.50;;;23.47;65.51
10460;BME280;54412;51.206;6.888;2022-08-18T08:37:52;100694.72;;;23.20;65.96
10460;BME280;54412;51.206;6.888;2022-08-18T08:43:15;100696.94;;;23.24;66.13
10460;BME280;54412;51.206;6.888;2022-08-18T08:46:09;100705.34;;;23.39;65.02
10460;BME280;54412;51.206;6.888;2022-08-18T08:48:42;100712.50;;;23.30;64.64
10460;BME280;54412;51.206;6.888;2022-08-18T08:53:57;100713.56;;;23.37;63.52
10460;BME280;54412;51.206;6.888;2022-08-18T08:56:30;100718.94;;;23.20;63.94
10460;BME280;54412;51.206;6.888;2022-08-18T08:59:05;100725.63;;;23.33;63.81
10460;BME280;54412;51.206;6.888;2022-08-18T09:04:48;100711.72;;;23.89;62.37
10460;BME280;54412;51.206;6.888;2022-08-18T09:07:45;100715.53;;;24.30;61.50
10460;BME280;54412;51.206;6.888;2022-08-18T09:17:00;100702.13;;;24.12;60.80
10460;BME280;54412;51.206;6.888;2022-08-18T09:23:16;100697.09;;;23.66;60.71
10460;BME280;54412;51.206;6.888;2022-08-18T09:26:01;100695.19;;;23.58;61.18
10460;BME280;54412;51.206;6.888;2022-08-18T09:28:56;100698.28;;;23.63;61.37
10460;BME280;54412;51.206;6.888;2022-08-18T09:31:26;100689.25;;;23.72;61.78
10460;BME280;54412;51.206;6.888;2022-08-18T09:34:30;100690.88;;;23.91;60.72
10460;BME280;54412;51.206;6.888;2022-08-18T09:37:17;100687.91;;;23.76;61.12
10460;BME280;54412;51.206;6.888;2022-08-18T09:40:13;100700.41;;;23.77;61.47
10460;BME280;54412;51.206;6.888;2022-08-18T09:43:30;100701.03;;;23.71;61.95
10460;BME280;54412;51.206;6.888;2022-08-18T09:46:00;100693.31;;;23.76;62.23
10460;BME280;54412;51.206;6.888;2022-08-18T09:48:35;100689.63;;;23.77;60.98
10460;BME280;54412;51.206;6.888;2022-08-18T09:51:35;100692.25;;;23.95;61.02
10460;BME280;54412;51.206;6.888;2022-08-18T09:54:15;100699.81;;;24.25;60.19
10460;BME280;54412;51.206;6.888;2022-08-18T09:59:52;100698.81;;;24.26;60.08
10460;BME280;54412;51.206;6.888;2022-08-18T10:13:48;100712.47;;;24.33;58.91
10460;BME280;54412;51.206;6.888;2022-08-18T10:17:05;100714.25;;;24.16;59.01
10460;BME280;54412;51.206;6.888;2022-08-18T10:22:43;100710.34;;;24.11;58.92
10460;BME280;54412;51.206;6.888;2022-08-18T10:25:12;100711.72;;;24.07;58.49
10460;BME280;54412;51.206;6.888;2022-08-18T10:33:10;100697.28;;;23.90;59.12
10460;BME280;54412;51.206;6.888;2022-08-18T10:38:40;100695.91;;;24.20;58.44
10460;BME280;54412;51.206;6.888;2022-08-18T10:41:19;100693.63;;;24.33;58.03
10460;BME280;54412;51.206;6.888;2022-08-18T10:43:48;100690.91;;;24.33;58.09
10460;BME280;54412;51.206;6.888;2022-08-18T10:46:27;100695.50;;;24.40;57.43
10460;BME280;54412;51.206;6.888;2022-08-18T10:52:17;100682.56;;;24.52;57.58
10460;BME280;54412;51.206;6.888;2022-08-18T10:55:29;100683.84;;;24.90;57.61
10460;BME280;54412;51.206;6.888;2022-08-18T11:04:26;100674.06;;;25.05;55.23
10460;BME280;54412;51.206;6.888;2022-08-18T11:07:04;100672.75;;;25.17;55.18
10460;BME280;54412;51.206;6.888;2022-08-18T11:09:32;100668.69;;;25.29;54.38
10460;BME280;54412;51.206;6.888;2022-08-18T11:12:01;100663.09;;;25.38;54.79
10460;BME280;54412;51.206;6.888;2022-08-18T11:15:03;100655.38;;;25.98;52.56
10460;BME280;54412;51.206;6.888;2022-08-18T11:20:08;100667.69;;;26.47;50.47
10460;BME280;54412;51.206;6.888;2022-08-18T11:22:35;100656.50;;;26.50;51.91
10460;BME280;54412;51.206;6.888;2022-08-18T11:25:29;100660.81;;;26.37;51.81
10460;BME280;54412;51.206;6.888;2022-08-18T11:27:56;100669.91;;;26.44;50.68
10460;BME280;54412;51.206;6.888;2022-08-18T11:30:30;100667.69;;;26.01;51.57
10460;BME280;54412;51.206;6.888;2022-08-18T11:32:58;100651.66;;;26.07;51.66
10460;BME280;54412;51.206;6.888;2022-08-18T11:35:44;100661.22;;;26.18;51.48
10460;BME280;54412;51.206;6.888;2022-08-18T11:38:13;100643.75;;;26.28;51.99
10460;BME280;54412;51.206;6.888;2022-08-18T11:40:44;100644.91;;;26.72;50.83
10460;BME280;54412;51.206;6.888;2022-08-18T11:43:32;100636.09;;;26.40;50.77
10460;BME280;54412;51.206;6.888;2022-08-18T11:48:50;100639.78;;;26.77;49.52
10460;BME280;54412;51.206;6.888;2022-08-18T11:51:26;100635.97;;;26.64;50.04
10460;BME280;54412;51.206;6.888;2022-08-18T11:54:19;100635.81;;;26.57;50.03
10460;BME280;54412;51.206;6.888;2022-08-18T11:56:46;100640.38;;;26.34;51.62
10460;BME280;54412;51.206;6.888;2022-08-18T12:01:52;100649.91;;;26.22;51.11
10460;BME280;54412;51.206;6.888;2022-08-18T12:04:35;100641.84;;;25.98;51.66
10460;BME280;54412;51.206;6.888;2022-08-18T12:07:12;100637.06;;;26.16;50.29
10460;BME280;54412;51.206;6.888;2022-08-18T12:10:21;100639.94;;;25.60;51.84
10460;BME280;54412;51.206;6.888;2022-08-18T12:12:50;100634.84;;;25.73;51.71
10460;BME280;54412;51.206;6.888;2022-08-18T12:17:44;100632.50;;;25.70;52.67
10460;BME280;54412;51.206;6.888;2022-08-18T12:20:12;100636.38;;;25.67;52.53
10460;BME280;54412;51.206;6.888;2022-08-18T12:22:40;100634.34;;;25.69;52.45
10460;BME280;54412;51.206;6.888;2022-08-18T12:25:15;100643.81;;;25.73;52.34
10460;BME280;54412;51.206;6.888;2022-08-18T12:27:42;100661.22;;;25.63;52.23
10460;BME280;54412;51.206;6.888;2022-08-18T12:30:09;100665.09;;;25.68;51.85
10460;BME280;54412;51.206;6.888;2022-08-18T12:32:36;100669.16;;;25.72;52.30
10460;BME280;54412;51.206;6.888;2022-08-18T12:35:06;100676.41;;;25.72;51.99
10460;BME280;54412;51.206;6.888;2022-08-18T12:37:32;100680.31;;;25.53;52.64
10460;BME280;54412;51.206;6.888;2022-08-18T12:39:59;100686.69;;;25.76;51.70
10460;BME280;54412;51.206;6.888;2022-08-18T12:42:26;100693.28;;;25.66;52.14
10460;BME280;54412;51.206;6.888;2022-08-18T12:44:52;100704.28;;;25.64;52.63
10460;BME280;54412;51.206;6.888;2022-08-18T12:47:24;100708.66;;;25.65;52.17
10460;BME280;54412;51.206;6.888;2022-08-18T12:49:51;100714.59;;;25.61;52.04
10460;BME280;54412;51.206;6.888;2022-08-18T12:52:18;100709.50;;;25.66;51.96
10460;BME280;54412;51.206;6.888;2022-08-18T12:54:44;100690.06;;;25.78;51.60
10460;BME280;54412;51.206;6.888;2022-08-18T12:57:24;100676.19;;;25.81;51.71
10460;BME280;54412;51.206;6.888;2022-08-18T12:59:50;100674.69;;;25.71;51.27
10460;BME280;54412;51.206;6.888;2022-08-18T13:02:16;100660.16;;;26.35;50.80
10460;BME280;54412;51.206;6.888;2022-08-18T13:04:42;100651.84;;;26.90;50.72
10460;BME280;54412;51.206;6.888;2022-08-18T13:07:11;100655.22;;;26.92;49.44
10460;BME280;54412;51.206;6.888;2022-08-18T13:09:38;100651.31;;;26.71;49.30
10460;BME280;54412;51.206;6.888;2022-08-18T13:12:05;100643.41;;;26.62;49.84
10460;BME280;54412;51.206;6.888;2022-08-18T13:14:32;100638.75;;;27.01;49.86
10460;BME280;54412;51.206;6.888;2022-08-18T13:16:58;100630.28;;;27.41;48.28
10460;BME280;54412;51.206;6.888;2022-08-18T13:19:23;100639.72;;;27.60;47.63
10460;BME280;54412;51.206;6.888;2022-08-18T13:21:49;100641.72;;;27.29;47.83
10460;BME280;54412;51.206;6.888;2022-08-18T13:24:15;100639.03;;;27.29;48.06
10460;BME280;54412;51.206;6.888;2022-08-18T13:26:44;100629.34;;;27.34;48.69
10460;BME280;54412;51.206;6.888;2022-08-18T13:29:10;100622.34;;;27.69;47.19
10460;BME280;54412;51.206;6.888;2022-08-18T13:31:37;100617.22;;;27.59;47.57
10460;BME280;54412;51.206;6.888;2022-08-18T13:34:04;100630.47;;;27.83;47.12
10460;BME280;54412;51.206;6.888;2022-08-18T13:36:32;100619.84;;;27.82;46.94
10460;BME280;54412;51.206;6.888;2022-08-18T13:39:14;100616.75;;;28.14;46.60
10460;BME280;54412;51.206;6.888;2022-08-18T13:41:41;100611.25;;;28.43;46.05
10460;BME280;54412;51.206;6.888;2022-08-18T13:44:08;100611.00;;;28.38;46.29
10460;BME280;54412;51.206;6.888;2022-08-18T13:46:34;100605.84;;;28.29;45.66
10460;BME280;54412;51.206;6.888;2022-08-18T13:49:07;100604.50;;;28.18;45.69
10460;BME280;54412;51.206;6.888;2022-08-18T13:51:33;100592.00;;;27.88;46.04
10460;BME280;54412;51.206;6.888;2022-08-18T13:53:59;100597.50;;;27.80;46.52
10460;BME280;54412;51.206;6.888;2022-08-18T13:56:25;100592.84;;;27.59;46.70
10460;BME280;54412;51.206;6.888;2022-08-18T13:58:51;100599.00;;;27.53;47.27
10460;BME280;54412;51.206;6.888;2022-08-18T14:01:17;100594.13;;;27.49;46.96
10460;BME280;54412;51.206;6.888;2022-08-18T14:03:44;100600.00;;;27.67;46.30
10460;BME280;54412;51.206;6.888;2022-08-18T14:06:10;100601.59;;;27.91;45.45
10460;BME280;54412;51.206;6.888;2022-08-18T14:08:35;100603.69;;;27.74;45.61
10460;BME280;54412;51.206;6.888;2022-08-18T14:11:03;100599.47;;;27.86;45.69
10460;BME280;54412;51.206;6.888;2022-08-18T14:13:30;100601.44;;;27.92;45.85
10460;BME280;54412;51.206;6.888;2022-08-18T14:15:57;100613.28;;;27.91;45.94
10460;BME280;54412;51.206;6.888;2022-08-18T14:18:24;100616.28;;;27.96;44.96
10460;BME280;54412;51.206;6.888;2022-08-18T14:20:51;100617.59;;;28.00;44.68
10460;BME280;54412;51.206;6.888;2022-08-18T14:23:36;100618.72;;;27.62;45.79
10460;BME280;54412;51.206;6.888;2022-08-18T14:26:20;100617.50;;;27.64;45.50
10460;BME280;54412;51.206;6.888;2022-08-18T14:29:04;100605.44;;;27.67;44.98
10460;BME280;54412;51.206;6.888;2022-08-18T14:31:31;100614.53;;;27.74;44.20
10460;BME280;54412;51.206;6.888;2022-08-18T14:33:57;100608.72;;;27.48;45.09
10460;BME280;54412;51.206;6.888;2022-08-18T14:36:23;100599.47;;;27.57;45.82
10460;BME280;54412;51.206;6.888;2022-08-18T14:38:49;100599.38;;;27.65;45.75
10460;BME280;54412;51.206;6.888;2022-08-18T14:41:16;100600.66;;;27.69;45.01
10460;BME280;54412;51.206;6.888;2022-08-18T14:43:42;100603.09;;;27.64;44.44
10460;BME280;54412;51.206;6.888;2022-08-18T14:46:10;100611.91;;;27.66;43.61
10460;BME280;54412;51.206;6.888;2022-08-18T14:48:37;100600.78;;;27.46;43.87
10460;BME280;54412;51.206;6.888;2022-08-18T14:51:03;100610.91;;;27.30;45.18
10460;BME280;54412;51.206;6.888;2022-08-18T14:53:31;100609.72;;;27.61;44.75
10460;BME280;54412;51.206;6.888;2022-08-18T14:56:03;100612.81;;;27.73;43.69
10460;BME280;54412;51.206;6.888;2022-08-18T14:58:31;100600.38;;;27.49;44.36
10460;BME280;54412;51.206;6.888;2022-08-18T15:01:02;100605.53;;;27.44;44.43
10460;BME280;54412;51.206;6.888;2022-08-18T15:03:30;100600.66;;;27.40;44.63
10460;BME280;54412;51.206;6.888;2022-08-18T15:05:57;100589.13;;;27.23;44.88